sensor_id;sensor_type;location;lat;lon;timestamp;pressure;altitude;pressure_sealevel;temperature;humidity
20987;BME280;10652;50.306;8.570;2022-12-18T00:00:11;99195.09;;;-5.91;91.07
20987;BME280;10652;50.306;8.570;2022-12-18T00:04:21;99191.47;;;-5.96;90.82
20987;BME280;10652;50.306;8.570;2022-12-18T00:08:25;99185.75;;;-5.91;92.38
20987;BME280;10652;50.306;8.570;2022-12-18T00:12:27;99183.38;;;-5.86;92.47
20987;BME280;10652;50.306;8.570;2022-12-18T00:16:31;99178.81;;;-5.74;93.83
20987;BME280;10652;50.306;8.570;2022-12-18T00:20:39;99177.44;;;-5.66;94.10
20987;BME280;10652;50.306;8.570;2022-12-18T00:24:41;99172.25;;;-5.67;92.89
20987;BME280;10652;50.306;8.570;2022-12-18T00:28:44;99169.38;;;-5.56;94.27
20987;BME280;10652;50.306;8.570;2022-12-18T00:32:46;99173.69;;;-5.55;93.30
20987;BME280;10652;50.306;8.570;2022-12-18T00:36:48;99180.25;;;-5.60;92.94
20987;BME280;10652;50.306;8.570;2022-12-18T00:40:50;99174.16;;;-5.63;93.06
20987;BME280;10652;50.306;8.570;2022-12-18T00:44:52;99177.38;;;-5.67;93.31
20987;BME280;10652;50.306;8.570;2022-12-18T00:48:54;99183.34;;;-5.67;93.56
20987;BME280;10652;50.306;8.570;2022-12-18T00:52:56;99190.31;;;-5.63;93.87
20987;BME280;10652;50.306;8.570;2022-12-18T00:56:58;99191.38;;;-5.58;93.58
20987;BME280;10652;50.306;8.570;2022-12-18T01:01:00;99187.13;;;-5.59;92.87
20987;BME280;10652;50.306;8.570;2022-12-18T01:05:03;99191.16;;;-5.64;92.99
20987;BME280;10652;50.306;8.570;2022-12-18T01:09:06;99185.78;;;-5.70;92.31
20987;BME280;10652;50.306;8.570;2022-12-18T01:13:10;99206.06;;;-5.73;92.03
20987;BME280;10652;50.306;8.570;2022-12-18T01:17:12;99201.75;;;-5.74;92.24
20987;BME280;10652;50.306;8.570;2022-12-18T01:21:15;99226.47;;;-5.73;92.08
20987;BME280;10652;50.306;8.570;2022-12-18T01:25:18;99217.84;;;-5.75;92.15
20987;BME280;10652;50.306;8.570;2022-12-18T01:29:20;99222.94;;;-5.75;91.82
20987;BME280;10652;50.306;8.570;2022-12-18T01:33:22;99229.59;;;-5.78;91.50
20987;BME280;10652;50.306;8.570;2022-12-18T01:37:24;99226.78;;;-5.85;91.34
20987;BME280;10652;50.306;8.570;2022-12-18T01:41:29;99217.44;;;-5.84;90.60
20987;BME280;10652;50.306;8.570;2022-12-18T01:45:50;99217.44;;;-5.84;90.36
20987;BME280;10652;50.306;8.570;2022-12-18T01:49:53;99213.84;;;-5.89;88.81
20987;BME280;10652;50.306;8.570;2022-12-18T01:53:56;99204.25;;;-5.95;88.11
20987;BME280;10652;50.306;8.570;2022-12-18T01:57:59;99210.91;;;-5.98;87.28
20987;BME280;10652;50.306;8.570;2022-12-18T02:02:02;99214.66;;;-6.09;86.62
20987;BME280;10652;50.306;8.570;2022-12-18T02:06:32;99207.69;;;-6.13;86.15
20987;BME280;10652;50.306;8.570;2022-12-18T02:15:12;99198.69;;;-6.24;85.70
20987;BME280;10652;50.306;8.570;2022-12-18T02:19:44;99198.47;;;-6.29;84.65
20987;BME280;10652;50.306;8.570;2022-12-18T02:28:00;99190.28;;;-6.41;84.62
20987;BME280;10652;50.306;8.570;2022-12-18T02:32:09;99202.50;;;-6.52;83.61
20987;BME280;10652;50.306;8.570;2022-12-18T02:36:15;99197.44;;;-6.69;84.54
20987;BME280;10652;50.306;8.570;2022-12-18T02:40:19;99195.03;;;-6.66;86.77
20987;BME280;10652;50.306;8.570;2022-12-18T02:44:23;99195.66;;;-6.53;88.07
20987;BME280;10652;50.306;8.570;2022-12-18T02:48:29;99209.50;;;-6.48;88.11
20987;BME280;10652;50.306;8.570;2022-12-18T02:53:16;99212.47;;;-6.39;88.15
20987;BME280;10652;50.306;8.570;2022-12-18T02:57:30;99205.72;;;-6.56;87.01
20987;BME280;10652;50.306;8.570;2022-12-18T03:06:00;99215.50;;;-6.65;88.29
20987;BME280;10652;50.306;8.570;2022-12-18T03:10:06;99220.72;;;-6.62;88.72
20987;BME280;10652;50.306;8.570;2022-12-18T03:14:13;99204.00;;;-6.75;88.22
20987;BME280;10652;50.306;8.570;2022-12-18T03:18:25;99209.16;;;-6.73;88.16
20987;BME280;10652;50.306;8.570;2022-12-18T03:22:32;99199.03;;;-6.71;88.86
20987;BME280;10652;50.306;8.570;2022-12-18T03:26:37;99199.19;;;-6.68;89.29
20987;BME280;10652;50.306;8.570;2022-12-18T03:30:44;99193.38;;;-6.66;88.92
20987;BME280;10652;50.306;8.570;2022-12-18T03:34:50;99189.16;;;-6.65;89.50
20987;BME280;10652;50.306;8.570;2022-12-18T03:38:56;99196.13;;;-6.61;89.42
20987;BME280;10652;50.306;8.570;2022-12-18T03:43:10;99200.22;;;-6.65;88.77
20987;BME280;10652;50.306;8.570;2022-12-18T03:47:17;99189.16;;;-6.65;89.85
20987;BME280;10652;50.306;8.570;2022-12-18T03:55:32;99193.78;;;-6.57;90.55
20987;BME280;10652;50.306;8.570;2022-12-18T03:59:39;99204.09;;;-6.54;91.43
20987;BME280;10652;50.306;8.570;2022-12-18T04:03:44;99207.63;;;-6.52;91.72
20987;BME280;10652;50.306;8.570;2022-12-18T04:07:49;99205.84;;;-6.53;91.53
20987;BME280;10652;50.306;8.570;2022-12-18T04:11:53;99187.09;;;-6.55;91.67
20987;BME280;10652;50.306;8.570;2022-12-18T04:15:56;99186.00;;;-6.60;91.21
20987;BME280;10652;50.306;8.570;2022-12-18T04:19:59;99187.56;;;-6.63;91.82
20987;BME280;10652;50.306;8.570;2022-12-18T04:24:01;99181.72;;;-6.61;92.24
20987;BME280;10652;50.306;8.570;2022-12-18T04:28:04;99187.09;;;-6.55;92.72
20987;BME280;10652;50.306;8.570;2022-12-18T04:32:07;99182.81;;;-6.56;92.05
20987;BME280;10652;50.306;8.570;2022-12-18T04:36:10;99193.91;;;-6.54;92.68
20987;BME280;10652;50.306;8.570;2022-12-18T04:40:14;99181.38;;;-6.49;92.67
20987;BME280;10652;50.306;8.570;2022-12-18T04:44:20;99179.13;;;-6.43;93.34
20987;BME280;10652;50.306;8.570;2022-12-18T04:48:22;99179.94;;;-6.44;93.47
20987;BME280;10652;50.306;8.570;2022-12-18T04:52:24;99180.88;;;-6.42;93.39
20987;BME280;10652;50.306;8.570;2022-12-18T04:56:26;99177.75;;;-6.37;93.89
20987;BME280;10652;50.306;8.570;2022-12-18T05:00:28;99170.91;;;-6.38;94.08
20987;BME280;10652;50.306;8.570;2022-12-18T05:04:30;99176.00;;;-6.38;94.27
20987;BME280;10652;50.306;8.570;2022-12-18T05:08:32;99180.22;;;-6.38;94.41
20987;BME280;10652;50.306;8.570;2022-12-18T05:12:34;99187.13;;;-6.36;95.01
20987;BME280;10652;50.306;8.570;2022-12-18T05:16:56;99185.41;;;-6.37;95.55
20987;BME280;10652;50.306;8.570;2022-12-18T05:21:02;99194.72;;;-6.37;95.76
20987;BME280;10652;50.306;8.570;2022-12-18T05:25:05;99196.09;;;-6.44;94.88
20987;BME280;10652;50.306;8.570;2022-12-18T05:29:07;99197.09;;;-6.40;95.71
20987;BME280;10652;50.306;8.570;2022-12-18T05:33:09;99191.00;;;-6.44;95.78
20987;BME280;10652;50.306;8.570;2022-12-18T05:37:11;99189.91;;;-6.49;95.15
20987;BME280;10652;50.306;8.570;2022-12-18T05:41:13;99194.63;;;-6.39;96.48
20987;BME280;10652;50.306;8.570;2022-12-18T05:45:15;99183.56;;;-6.39;96.27
20987;BME280;10652;50.306;8.570;2022-12-18T05:49:17;99180.34;;;-6.35;96.50
20987;BME280;10652;50.306;8.570;2022-12-18T05:53:20;99192.38;;;-6.33;96.65
20987;BME280;10652;50.306;8.570;2022-12-18T05:57:22;99191.41;;;-6.35;95.75
20987;BME280;10652;50.306;8.570;2022-12-18T06:01:26;99192.81;;;-6.41;95.86
20987;BME280;10652;50.306;8.570;2022-12-18T06:05:28;99195.22;;;-6.44;95.94
20987;BME280;10652;50.306;8.570;2022-12-18T06:09:30;99192.63;;;-6.46;96.29
20987;BME280;10652;50.306;8.570;2022-12-18T06:13:32;99198.81;;;-6.41;97.19
20987;BME280;10652;50.306;8.570;2022-12-18T06:17:35;99211.88;;;-6.33;98.24
20987;BME280;10652;50.306;8.570;2022-12-18T06:21:37;99202.03;;;-6.25;98.69
20987;BME280;10652;50.306;8.570;2022-12-18T06:25:39;99200.19;;;-6.10;99.68
20987;BME280;10652;50.306;8.570;2022-12-18T06:29:41;99199.41;;;-6.08;99.10
20987;BME280;10652;50.306;8.570;2022-12-18T06:33:43;99201.94;;;-6.09;99.13
20987;BME280;10652;50.306;8.570;2022-12-18T06:37:45;99198.34;;;-6.13;98.02
20987;BME280;10652;50.306;8.570;2022-12-18T06:41:47;99205.66;;;-6.20;97.26
20987;BME280;10652;50.306;8.570;2022-12-18T06:45:50;99214.75;;;-6.25;97.47
20987;BME280;10652;50.306;8.570;2022-12-18T06:49:54;99219.19;;;-6.21;97.24
20987;BME280;10652;50.306;8.570;2022-12-18T06:53:56;99227.25;;;-6.32;95.72
20987;BME280;10652;50.306;8.570;2022-12-18T06:57:58;99226.50;;;-6.29;96.90
20987;BME280;10652;50.306;8.570;2022-12-18T07:02:00;99232.41;;;-6.30;97.10
20987;BME280;10652;50.306;8.570;2022-12-18T07:06:03;99238.13;;;-6.16;97.86
20987;BME280;10652;50.306;8.570;2022-12-18T07:10:05;99241.09;;;-6.07;97.51
20987;BME280;10652;50.306;8.570;2022-12-18T07:14:07;99247.13;;;-6.05;97.85
20987;BME280;10652;50.306;8.570;2022-12-18T07:18:10;99240.56;;;-6.00;98.25
20987;BME280;10652;50.306;8.570;2022-12-18T07:22:12;99233.25;;;-5.93;98.34
20987;BME280;10652;50.306;8.570;2022-12-18T07:26:16;99226.97;;;-5.80;99.39
20987;BME280;10652;50.306;8.570;2022-12-18T07:30:18;99224.97;;;-5.68;99.61
20987;BME280;10652;50.306;8.570;2022-12-18T07:34:20;99239.06;;;-5.57;99.98
20987;BME280;10652;50.306;8.570;2022-12-18T07:38:22;99241.00;;;-5.51;99.54
20987;BME280;10652;50.306;8.570;2022-12-18T07:42:24;99234.47;;;-5.45;99.55
20987;BME280;10652;50.306;8.570;2022-12-18T07:46:32;99231.00;;;-5.47;98.88
20987;BME280;10652;50.306;8.570;2022-12-18T07:50:34;99230.88;;;-5.50;98.98
20987;BME280;10652;50.306;8.570;2022-12-18T07:54:37;99232.78;;;-5.44;99.10
20987;BME280;10652;50.306;8.570;2022-12-18T07:58:39;99228.91;;;-5.36;99.59
20987;BME280;10652;50.306;8.570;2022-12-18T08:02:41;99225.31;;;-5.20;100.00
20987;BME280;10652;50.306;8.570;2022-12-18T08:06:43;99229.19;;;-5.09;99.93
20987;BME280;10652;50.306;8.570;2022-12-18T08:10:49;99235.78;;;-4.94;100.00
20987;BME280;10652;50.306;8.570;2022-12-18T08:14:51;99235.41;;;-4.82;100.00
20987;BME280;10652;50.306;8.570;2022-12-18T08:18:53;99230.78;;;-4.70;100.00
20987;BME280;10652;50.306;8.570;2022-12-18T08:22:55;99227.03;;;-4.57;100.00
20987;BME280;10652;50.306;8.570;2022-12-18T08:26:59;99231.00;;;-4.43;100.00
20987;BME280;10652;50.306;8.570;2022-12-18T08:31:22;99223.84;;;-4.29;100.00
20987;BME280;10652;50.306;8.570;2022-12-18T08:35:25;99217.56;;;-4.15;99.81
20987;BME280;10652;50.306;8.570;2022-12-18T08:39:31;99211.06;;;-4.07;99.13
20987;BME280;10652;50.306;8.570;2022-12-18T08:43:33;99201.25;;;-3.95;99.24
20987;BME280;10652;50.306;8.570;2022-12-18T08:47:54;99203.31;;;-3.86;98.93
20987;BME280;10652;50.306;8.570;2022-12-18T08:51:57;99184.84;;;-3.78;98.53
20987;BME280;10652;50.306;8.570;2022-12-18T08:55:59;99183.44;;;-3.70;98.08
20987;BME280;10652;50.306;8.570;2022-12-18T09:00:02;99183.19;;;-3.52;99.17
20987;BME280;10652;50.306;8.570;2022-12-18T09:04:04;99184.47;;;-3.39;98.20
20987;BME280;10652;50.306;8.570;2022-12-18T09:08:08;99194.06;;;-3.34;97.52
20987;BME280;10652;50.306;8.570;2022-12-18T09:12:11;99183.16;;;-3.28;96.56
20987;BME280;10652;50.306;8.570;2022-12-18T09:16:13;99198.78;;;-3.21;95.42
20987;BME280;10652;50.306;8.570;2022-12-18T09:20:16;99202.25;;;-3.19;94.23
20987;BME280;10652;50.306;8.570;2022-12-18T09:24:19;99209.06;;;-3.19;92.91
20987;BME280;10652;50.306;8.570;2022-12-18T09:28:21;99201.38;;;-2.67;96.77
20987;BME280;10652;50.306;8.570;2022-12-18T09:32:23;99201.44;;;-2.65;93.00
20987;BME280;10652;50.306;8.570;2022-12-18T09:36:25;99202.88;;;-2.74;90.87
20987;BME280;10652;50.306;8.570;2022-12-18T09:40:34;99204.44;;;-2.79;89.78
20987;BME280;10652;50.306;8.570;2022-12-18T09:44:41;99205.47;;;-2.74;89.68
20987;BME280;10652;50.306;8.570;2022-12-18T09:48:49;99198.09;;;-2.63;89.25
20987;BME280;10652;50.306;8.570;2022-12-18T09:52:55;99201.72;;;-2.56;87.86
20987;BME280;10652;50.306;8.570;2022-12-18T09:56:59;99199.16;;;-2.56;87.00
20987;BME280;10652;50.306;8.570;2022-12-18T10:01:10;99192.28;;;-2.57;85.58
20987;BME280;10652;50.306;8.570;2022-12-18T10:05:16;99200.91;;;-2.55;85.17
20987;BME280;10652;50.306;8.570;2022-12-18T10:09:27;99190.53;;;-2.58;84.62
20987;BME280;10652;50.306;8.570;2022-12-18T10:13:39;99197.41;;;-2.57;83.46
20987;BME280;10652;50.306;8.570;2022-12-18T10:18:14;99200.75;;;-2.60;82.56
20987;BME280;10652;50.306;8.570;2022-12-18T10:26:35;99183.63;;;-2.61;80.57
20987;BME280;10652;50.306;8.570;2022-12-18T10:30:38;99183.56;;;-2.62;80.02
20987;BME280;10652;50.306;8.570;2022-12-18T10:34:40;99169.56;;;-2.74;77.80
20987;BME280;10652;50.306;8.570;2022-12-18T10:38:42;99175.28;;;-2.82;76.17
20987;BME280;10652;50.306;8.570;2022-12-18T10:42:45;99176.84;;;-2.86;76.83
20987;BME280;10652;50.306;8.570;2022-12-18T10:46:54;99176.16;;;-2.82;77.43
20987;BME280;10652;50.306;8.570;2022-12-18T10:50:58;99193.53;;;-2.72;77.45
20987;BME280;10652;50.306;8.570;2022-12-18T10:55:17;99179.00;;;-2.73;76.08
20987;BME280;10652;50.306;8.570;2022-12-18T10:59:24;99181.22;;;-2.83;73.79
20987;BME280;10652;50.306;8.570;2022-12-18T11:03:32;99191.13;;;-2.94;73.68
20987;BME280;10652;50.306;8.570;2022-12-18T11:07:48;99187.00;;;-2.89;73.87
20987;BME280;10652;50.306;8.570;2022-12-18T11:11:56;99176.31;;;-2.76;75.11
20987;BME280;10652;50.306;8.570;2022-12-18T11:15:59;99176.81;;;-2.60;74.50
20987;BME280;10652;50.306;8.570;2022-12-18T11:20:04;99183.69;;;-2.59;73.22
20987;BME280;10652;50.306;8.570;2022-12-18T11:24:29;99166.72;;;-2.54;72.52
20987;BME280;10652;50.306;8.570;2022-12-18T11:28:40;99160.91;;;-2.50;72.58
20987;BME280;10652;50.306;8.570;2022-12-18T11:32:45;99141.97;;;-2.54;70.73
20987;BME280;10652;50.306;8.570;2022-12-18T11:36:49;99149.50;;;-2.58;71.76
20987;BME280;10652;50.306;8.570;2022-12-18T11:40:59;99142.09;;;-2.49;72.17
20987;BME280;10652;50.306;8.570;2022-12-18T11:45:27;99138.38;;;-2.31;72.95
20987;BME280;10652;50.306;8.570;2022-12-18T11:49:33;99141.00;;;-2.29;71.93
20987;BME280;10652;50.306;8.570;2022-12-18T11:53:38;99136.50;;;-2.36;71.54
20987;BME280;10652;50.306;8.570;2022-12-18T12:02:23;99138.50;;;-2.56;71.78
20987;BME280;10652;50.306;8.570;2022-12-18T12:15:20;99154.38;;;-2.39;72.54
20987;BME280;10652;50.306;8.570;2022-12-18T12:24:03;99159.88;;;-2.55;71.54
20987;BME280;10652;50.306;8.570;2022-12-18T12:41:23;99118.34;;;-2.72;72.24
20987;BME280;10652;50.306;8.570;2022-12-18T12:46:07;99129.03;;;-2.85;72.72
20987;BME280;10652;50.306;8.570;2022-12-18T12:50:16;99118.84;;;-2.84;73.60
20987;BME280;10652;50.306;8.570;2022-12-18T12:54:23;99126.53;;;-2.84;74.06
20987;BME280;10652;50.306;8.570;2022-12-18T12:58:36;99133.50;;;-2.80;73.93
20987;BME280;10652;50.306;8.570;2022-12-18T13:07:06;99145.41;;;-2.82;75.12
20987;BME280;10652;50.306;8.570;2022-12-18T13:11:29;99143.41;;;-2.90;75.09
20987;BME280;10652;50.306;8.570;2022-12-18T13:16:06;99134.75;;;-2.94;75.25
20987;BME280;10652;50.306;8.570;2022-12-18T13:20:12;99127.78;;;-2.98;75.99
20987;BME280;10652;50.306;8.570;2022-12-18T13:24:25;99131.47;;;-2.90;76.45
20987;BME280;10652;50.306;8.570;2022-12-18T13:41:34;99115.13;;;-2.93;77.08
20987;BME280;10652;50.306;8.570;2022-12-18T13:45:42;99122.06;;;-2.91;77.64
20987;BME280;10652;50.306;8.570;2022-12-18T13:49:47;99130.72;;;-2.86;77.98
20987;BME280;10652;50.306;8.570;2022-12-18T13:53:52;99112.78;;;-2.86;78.11
20987;BME280;10652;50.306;8.570;2022-12-18T13:58:05;99105.66;;;-2.96;77.98
20987;BME280;10652;50.306;8.570;2022-12-18T14:02:16;99102.16;;;-2.98;78.60
20987;BME280;10652;50.306;8.570;2022-12-18T14:06:20;99098.59;;;-3.03;79.12
20987;BME280;10652;50.306;8.570;2022-12-18T14:10:22;99098.44;;;-3.09;79.55
20987;BME280;10652;50.306;8.570;2022-12-18T14:14:47;99110.09;;;-3.17;79.90
20987;BME280;10652;50.306;8.570;2022-12-18T14:18:56;99123.53;;;-3.24;80.85
20987;BME280;10652;50.306;8.570;2022-12-18T14:27:28;99124.41;;;-3.24;82.20
20987;BME280;10652;50.306;8.570;2022-12-18T14:31:31;99125.38;;;-3.20;82.26
20987;BME280;10652;50.306;8.570;2022-12-18T14:35:35;99123.91;;;-3.13;82.50
20987;BME280;10652;50.306;8.570;2022-12-18T14:39:38;99123.09;;;-3.11;82.64
20987;BME280;10652;50.306;8.570;2022-12-18T14:43:41;99122.22;;;-3.11;82.63
20987;BME280;10652;50.306;8.570;2022-12-18T14:47:45;99124.84;;;-3.10;83.16
20987;BME280;10652;50.306;8.570;2022-12-18T14:51:59;99127.66;;;-3.02;83.64
20987;BME280;10652;50.306;8.570;2022-12-18T14:56:03;99120.91;;;-2.99;83.53
20987;BME280;10652;50.306;8.570;2022-12-18T15:00:20;99113.28;;;-2.97;83.54
20987;BME280;10652;50.306;8.570;2022-12-18T15:04:29;99112.41;;;-2.98;83.14
20987;BME280;10652;50.306;8.570;2022-12-18T15:08:36;99107.22;;;-3.01;83.76
20987;BME280;10652;50.306;8.570;2022-12-18T15:12:42;99108.97;;;-3.00;84.06
20987;BME280;10652;50.306;8.570;2022-12-18T15:16:53;99110.69;;;-2.99;84.46
20987;BME280;10652;50.306;8.570;2022-12-18T15:20:58;99100.56;;;-2.94;84.93
20987;BME280;10652;50.306;8.570;2022-12-18T15:25:01;99106.72;;;-2.89;84.92
20987;BME280;10652;50.306;8.570;2022-12-18T15:29:04;99105.84;;;-2.90;84.53
20987;BME280;10652;50.306;8.570;2022-12-18T15:33:23;99093.97;;;-2.88;85.35
20987;BME280;10652;50.306;8.570;2022-12-18T15:37:26;99089.72;;;-2.86;85.49
20987;BME280;10652;50.306;8.570;2022-12-18T15:41:31;99085.63;;;-2.81;85.16
20987;BME280;10652;50.306;8.570;2022-12-18T15:45:36;99088.28;;;-2.78;85.37
20987;BME280;10652;50.306;8.570;2022-12-18T15:49:38;99083.03;;;-2.82;85.11
20987;BME280;10652;50.306;8.570;2022-12-18T15:53:40;99080.47;;;-2.82;85.21
20987;BME280;10652;50.306;8.570;2022-12-18T15:57:43;99074.50;;;-2.81;84.95
20987;BME280;10652;50.306;8.570;2022-12-18T16:01:49;99068.59;;;-2.79;85.24
20987;BME280;10652;50.306;8.570;2022-12-18T16:05:52;99065.13;;;-2.81;85.18
20987;BME280;10652;50.306;8.570;2022-12-18T16:09:55;99074.56;;;-2.80;85.07
20987;BME280;10652;50.306;8.570;2022-12-18T16:13:59;99078.84;;;-2.79;85.34
20987;BME280;10652;50.306;8.570;2022-12-18T16:18:01;99065.13;;;-2.81;85.30
20987;BME280;10652;50.306;8.570;2022-12-18T16:22:04;99065.09;;;-2.82;85.10
20987;BME280;10652;50.306;8.570;2022-12-18T16:26:07;99049.75;;;-2.81;85.45
20987;BME280;10652;50.306;8.570;2022-12-18T16:30:17;99035.28;;;-2.79;85.26
20987;BME280;10652;50.306;8.570;2022-12-18T16:34:21;99020.72;;;-2.80;85.53
20987;BME280;10652;50.306;8.570;2022-12-18T16:38:28;99019.09;;;-2.78;85.74
20987;BME280;10652;50.306;8.570;2022-12-18T16:42:31;99020.03;;;-2.74;85.81
20987;BME280;10652;50.306;8.570;2022-12-18T16:46:33;99017.34;;;-2.79;85.67
20987;BME280;10652;50.306;8.570;2022-12-18T16:50:35;99010.41;;;-2.83;86.12
20987;BME280;10652;50.306;8.570;2022-12-18T16:54:37;99017.97;;;-2.86;86.22
20987;BME280;10652;50.306;8.570;2022-12-18T16:58:40;99021.28;;;-2.90;86.99
20987;BME280;10652;50.306;8.570;2022-12-18T17:02:43;99024.69;;;-2.91;87.35
20987;BME280;10652;50.306;8.570;2022-12-18T17:06:45;99021.41;;;-2.87;87.86
20987;BME280;10652;50.306;8.570;2022-12-18T17:10:52;99002.72;;;-2.83;88.08
20987;BME280;10652;50.306;8.570;2022-12-18T17:14:54;99010.56;;;-2.77;88.36
20987;BME280;10652;50.306;8.570;2022-12-18T17:18:56;99009.00;;;-2.72;88.54
20987;BME280;10652;50.306;8.570;2022-12-18T17:22:58;99009.94;;;-2.70;88.57
20987;BME280;10652;50.306;8.570;2022-12-18T17:27:03;99009.09;;;-2.68;88.24
20987;BME280;10652;50.306;8.570;2022-12-18T17:35:13;99007.28;;;-2.73;89.00
20987;BME280;10652;50.306;8.570;2022-12-18T17:39:18;99005.50;;;-2.75;89.53
20987;BME280;10652;50.306;8.570;2022-12-18T17:43:20;99000.31;;;-2.77;89.81
20987;BME280;10652;50.306;8.570;2022-12-18T17:47:23;99000.44;;;-2.72;90.30
20987;BME280;10652;50.306;8.570;2022-12-18T17:51:26;99003.97;;;-2.68;90.07
20987;BME280;10652;50.306;8.570;2022-12-18T17:55:29;99004.81;;;-2.70;90.40
20987;BME280;10652;50.306;8.570;2022-12-18T17:59:31;99002.16;;;-2.73;90.41
20987;BME280;10652;50.306;8.570;2022-12-18T18:03:33;99007.44;;;-2.66;91.34
20987;BME280;10652;50.306;8.570;2022-12-18T18:07:39;99001.41;;;-2.68;91.05
20987;BME280;10652;50.306;8.570;2022-12-18T18:11:41;99007.38;;;-2.70;91.50
20987;BME280;10652;50.306;8.570;2022-12-18T18:16:02;98987.69;;;-2.71;92.22
20987;BME280;10652;50.306;8.570;2022-12-18T18:20:05;98985.19;;;-2.67;92.60
20987;BME280;10652;50.306;8.570;2022-12-18T18:24:08;98994.59;;;-2.68;92.57
20987;BME280;10652;50.306;8.570;2022-12-18T18:28:10;98987.72;;;-2.69;92.38
20987;BME280;10652;50.306;8.570;2022-12-18T18:32:13;98986.78;;;-2.73;92.76
20987;BME280;10652;50.306;8.570;2022-12-18T18:36:15;98980.06;;;-2.67;92.77
20987;BME280;10652;50.306;8.570;2022-12-18T18:40:17;98968.19;;;-2.65;92.90
20987;BME280;10652;50.306;8.570;2022-12-18T18:44:20;98964.69;;;-2.67;93.07
20987;BME280;10652;50.306;8.570;2022-12-18T18:48:27;98963.66;;;-2.74;92.52
20987;BME280;10652;50.306;8.570;2022-12-18T18:52:33;98955.91;;;-2.76;93.61
20987;BME280;10652;50.306;8.570;2022-12-18T18:56:36;98944.03;;;-2.74;93.78
20987;BME280;10652;50.306;8.570;2022-12-18T19:01:00;98934.59;;;-2.75;94.03
20987;BME280;10652;50.306;8.570;2022-12-18T19:05:03;98949.97;;;-2.75;94.26
20987;BME280;10652;50.306;8.570;2022-12-18T19:09:05;98937.25;;;-2.72;94.44
20987;BME280;10652;50.306;8.570;2022-12-18T19:13:11;98937.34;;;-2.68;94.64
20987;BME280;10652;50.306;8.570;2022-12-18T19:17:23;98929.84;;;-2.61;95.17
20987;BME280;10652;50.306;8.570;2022-12-18T19:21:31;98932.59;;;-2.53;94.63
20987;BME280;10652;50.306;8.570;2022-12-18T19:25:36;98940.28;;;-2.55;94.27
20987;BME280;10652;50.306;8.570;2022-12-18T19:29:43;98924.09;;;-2.52;94.22
20987;BME280;10652;50.306;8.570;2022-12-18T19:33:46;98942.09;;;-2.51;93.84
20987;BME280;10652;50.306;8.570;2022-12-18T19:37:48;98941.28;;;-2.48;93.93
20987;BME280;10652;50.306;8.570;2022-12-18T19:41:50;98932.78;;;-2.47;93.30
20987;BME280;10652;50.306;8.570;2022-12-18T19:45:54;98922.53;;;-2.47;93.46
20987;BME280;10652;50.306;8.570;2022-12-18T19:49:56;98923.53;;;-2.42;93.61
20987;BME280;10652;50.306;8.570;2022-12-18T19:53:59;98916.81;;;-2.37;93.31
20987;BME280;10652;50.306;8.570;2022-12-18T19:58:03;98912.56;;;-2.35;92.99
20987;BME280;10652;50.306;8.570;2022-12-18T20:02:05;98904.97;;;-2.32;92.64
20987;BME280;10652;50.306;8.570;2022-12-18T20:10:12;98912.66;;;-2.32;92.22
20987;BME280;10652;50.306;8.570;2022-12-18T20:14:16;98919.63;;;-2.28;92.08
20987;BME280;10652;50.306;8.570;2022-12-18T20:18:24;98911.00;;;-2.30;91.83
20987;BME280;10652;50.306;8.570;2022-12-18T20:22:26;98922.94;;;-2.32;91.19
20987;BME280;10652;50.306;8.570;2022-12-18T20:26:29;98916.88;;;-2.34;91.53
20987;BME280;10652;50.306;8.570;2022-12-18T20:30:31;98922.84;;;-2.35;91.51
20987;BME280;10652;50.306;8.570;2022-12-18T20:34:33;98904.00;;;-2.37;91.56
20987;BME280;10652;50.306;8.570;2022-12-18T20:38:36;98915.97;;;-2.36;91.44
20987;BME280;10652;50.306;8.570;2022-12-18T20:42:40;98919.41;;;-2.36;91.68
20987;BME280;10652;50.306;8.570;2022-12-18T20:46:42;98928.06;;;-2.32;91.44
20987;BME280;10652;50.306;8.570;2022-12-18T20:50:44;98921.66;;;-2.15;93.35
20987;BME280;10652;50.306;8.570;2022-12-18T20:54:47;98920.97;;;-2.08;92.74
20987;BME280;10652;50.306;8.570;2022-12-18T20:58:49;98909.88;;;-2.07;91.61
20987;BME280;10652;50.306;8.570;2022-12-18T21:02:56;98901.13;;;-2.15;90.49
20987;BME280;10652;50.306;8.570;2022-12-18T21:06:58;98905.50;;;-2.11;91.42
20987;BME280;10652;50.306;8.570;2022-12-18T21:15:40;98920.09;;;-1.72;94.24
20987;BME280;10652;50.306;8.570;2022-12-18T21:19:42;98922.66;;;-1.72;90.85
20987;BME280;10652;50.306;8.570;2022-12-18T21:23:44;98924.28;;;-1.77;90.51
20987;BME280;10652;50.306;8.570;2022-12-18T21:27:46;98907.19;;;-1.75;89.95
20987;BME280;10652;50.306;8.570;2022-12-18T21:31:49;98905.56;;;-1.73;88.89
20987;BME280;10652;50.306;8.570;2022-12-18T21:35:51;98934.63;;;-1.74;88.46
20987;BME280;10652;50.306;8.570;2022-12-18T21:39:54;98931.13;;;-1.76;87.74
20987;BME280;10652;50.306;8.570;2022-12-18T21:43:56;98924.34;;;-1.74;88.04
20987;BME280;10652;50.306;8.570;2022-12-18T21:48:07;98914.13;;;-1.71;88.09
20987;BME280;10652;50.306;8.570;2022-12-18T21:52:09;98922.88;;;-1.63;88.17
20987;BME280;10652;50.306;8.570;2022-12-18T21:56:11;98912.59;;;-1.63;86.67
20987;BME280;10652;50.306;8.570;2022-12-18T22:00:13;98924.56;;;-1.65;87.13
20987;BME280;10652;50.306;8.570;2022-12-18T22:04:20;98912.69;;;-1.60;86.77
20987;BME280;10652;50.306;8.570;2022-12-18T22:08:23;98914.44;;;-1.59;86.52
20987;BME280;10652;50.306;8.570;2022-12-18T22:12:25;98905.09;;;-1.56;86.88
20987;BME280;10652;50.306;8.570;2022-12-18T22:16:46;98907.69;;;-1.54;86.17
20987;BME280;10652;50.306;8.570;2022-12-18T22:20:59;98899.09;;;-1.56;85.86
20987;BME280;10652;50.306;8.570;2022-12-18T22:25:01;98894.81;;;-1.56;85.84
20987;BME280;10652;50.306;8.570;2022-12-18T22:29:04;98906.03;;;-1.52;85.49
20987;BME280;10652;50.306;8.570;2022-12-18T22:33:25;98902.63;;;-1.51;85.20
20987;BME280;10652;50.306;8.570;2022-12-18T22:37:27;98904.38;;;-1.50;85.30
20987;BME280;10652;50.306;8.570;2022-12-18T22:41:29;98902.69;;;-1.48;85.02
20987;BME280;10652;50.306;8.570;2022-12-18T22:45:33;98900.13;;;-1.48;85.29
20987;BME280;10652;50.306;8.570;2022-12-18T22:49:39;98889.16;;;-1.41;85.16
20987;BME280;10652;50.306;8.570;2022-12-18T22:53:42;98894.31;;;-1.41;84.16
20987;BME280;10652;50.306;8.570;2022-12-18T22:57:46;98881.31;;;-1.47;83.96
20987;BME280;10652;50.306;8.570;2022-12-18T23:01:51;98890.69;;;-1.49;83.59
20987;BME280;10652;50.306;8.570;2022-12-18T23:06:06;98882.09;;;-1.51;83.40